sensor_id;sensor_type;location;lat;lon;timestamp;temperature;humidity
21559;DHT22;10940;48.890;8.240;2022-08-19T00:02:04;21.50;99.90
21559;DHT22;10940;48.890;8.240;2022-08-19T00:04:33;21.50;99.90
21559;DHT22;10940;48.890;8.240;2022-08-19T00:07:02;21.50;99.90
21559;DHT22;10940;48.890;8.240;2022-08-19T00:09:29;21.50;99.90
21559;DHT22;10940;48.890;8.240;2022-08-19T00:11:55;21.40;99.90
21559;DHT22;10940;48.890;8.240;2022-08-19T00:14:22;21.50;99.90
21559;DHT22;10940;48.890;8.240;2022-08-19T00:16:49;21.50;99.90
21559;DHT22;10940;48.890;8.240;2022-08-19T00:19:17;21.40;99.90
21559;DHT22;10940;48.890;8.240;2022-08-19T00:21:42;21.40;99.90
21559;DHT22;10940;48.890;8.240;2022-08-19T00:24:11;21.40;99.90
21559;DHT22;10940;48.890;8.240;2022-08-19T00:26:38;21.40;99.90
21559;DHT22;10940;48.890;8.240;2022-08-19T00:29:05;21.40;99.90
21559;DHT22;10940;48.890;8.240;2022-08-19T00:31:31;21.40;99.90
21559;DHT22;10940;48.890;8.240;2022-08-19T00:33:57;21.40;99.90
21559;DHT22;10940;48.890;8.240;2022-08-19T00:36:23;21.30;99.90
21559;DHT22;10940;48.890;8.240;2022-08-19T00:38:48;21.30;99.90
21559;DHT22;10940;48.890;8.240;2022-08-19T00:41:19;21.30;99.90
21559;DHT22;10940;48.890;8.240;2022-08-19T00:44:05;21.30;99.90
21559;DHT22;10940;48.890;8.240;2022-08-19T00:46:32;21.30;99.90
21559;DHT22;10940;48.890;8.240;2022-08-19T00:49:00;21.30;99.90
21559;DHT22;10940;48.890;8.240;2022-08-19T00:51:29;21.30;99.90
21559;DHT22;10940;48.890;8.240;2022-08-19T00:53:56;21.30;99.90
21559;DHT22;10940;48.890;8.240;2022-08-19T00:56:23;21.30;99.90
21559;DHT22;10940;48.890;8.240;2022-08-19T00:58:51;21.30;99.90
21559;DHT22;10940;48.890;8.240;2022-08-19T01:01:17;21.30;99.90
21559;DHT22;10940;48.890;8.240;2022-08-19T01:03:43;21.30;99.90
21559;DHT22;10940;48.890;8.240;2022-08-19T01:06:08;21.30;99.90
21559;DHT22;10940;48.890;8.240;2022-08-19T01:08:34;21.30;99.90
21559;DHT22;10940;48.890;8.240;2022-08-19T01:10:59;21.30;99.90
21559;DHT22;10940;48.890;8.240;2022-08-19T01:13:30;21.30;99.90
21559;DHT22;10940;48.890;8.240;2022-08-19T01:16:00;21.30;99.90
21559;DHT22;10940;48.890;8.240;2022-08-19T01:18:27;21.30;99.90
21559;DHT22;10940;48.890;8.240;2022-08-19T01:20:56;21.30;99.90
21559;DHT22;10940;48.890;8.240;2022-08-19T01:23:23;21.30;99.90
21559;DHT22;10940;48.890;8.240;2022-08-19T01:26:09;21.30;99.90
21559;DHT22;10940;48.890;8.240;2022-08-19T01:28:36;21.30;99.90
21559;DHT22;10940;48.890;8.240;2022-08-19T01:31:02;21.30;99.90
21559;DHT22;10940;48.890;8.240;2022-08-19T01:33:28;21.30;99.90
21559;DHT22;10940;48.890;8.240;2022-08-19T01:36:11;21.30;99.90
21559;DHT22;10940;48.890;8.240;2022-08-19T01:38:40;21.30;99.90
21559;DHT22;10940;48.890;8.240;2022-08-19T01:41:11;21.40;99.90
21559;DHT22;10940;48.890;8.240;2022-08-19T01:43:37;21.30;99.90
21559;DHT22;10940;48.890;8.240;2022-08-19T01:46:04;21.40;99.90
21559;DHT22;10940;48.890;8.240;2022-08-19T01:48:34;21.40;99.90
21559;DHT22;10940;48.890;8.240;2022-08-19T01:51:01;21.40;99.90
21559;DHT22;10940;48.890;8.240;2022-08-19T01:53:26;21.40;99.90
21559;DHT22;10940;48.890;8.240;2022-08-19T01:55:52;21.40;99.90
21559;DHT22;10940;48.890;8.240;2022-08-19T01:58:23;21.40;99.90
21559;DHT22;10940;48.890;8.240;2022-08-19T02:00:50;21.40;99.90
21559;DHT22;10940;48.890;8.240;2022-08-19T02:03:15;21.30;99.90
21559;DHT22;10940;48.890;8.240;2022-08-19T02:05:42;21.30;99.90
21559;DHT22;10940;48.890;8.240;2022-08-19T02:08:09;21.20;99.90
21559;DHT22;10940;48.890;8.240;2022-08-19T02:10:40;21.20;99.90
21559;DHT22;10940;48.890;8.240;2022-08-19T02:13:06;21.20;99.90
21559;DHT22;10940;48.890;8.240;2022-08-19T02:15:32;21.20;99.90
21559;DHT22;10940;48.890;8.240;2022-08-19T02:17:57;21.20;99.90
21559;DHT22;10940;48.890;8.240;2022-08-19T02:20:23;21.20;99.90
21559;DHT22;10940;48.890;8.240;2022-08-19T02:22:49;21.20;99.90
21559;DHT22;10940;48.890;8.240;2022-08-19T02:25:15;21.20;99.90
21559;DHT22;10940;48.890;8.240;2022-08-19T02:27:41;21.20;99.90
21559;DHT22;10940;48.890;8.240;2022-08-19T02:30:10;21.10;99.90
21559;DHT22;10940;48.890;8.240;2022-08-19T02:32:36;21.10;99.90
21559;DHT22;10940;48.890;8.240;2022-08-19T02:35:02;21.10;99.90
21559;DHT22;10940;48.890;8.240;2022-08-19T02:37:28;21.00;99.90
21559;DHT22;10940;48.890;8.240;2022-08-19T02:40:12;21.00;99.90
21559;DHT22;10940;48.890;8.240;2022-08-19T02:42:38;21.00;99.90
21559;DHT22;10940;48.890;8.240;2022-08-19T02:45:06;21.00;99.90
21559;DHT22;10940;48.890;8.240;2022-08-19T02:47:33;21.00;99.90
21559;DHT22;10940;48.890;8.240;2022-08-19T02:50:01;21.00;99.90
21559;DHT22;10940;48.890;8.240;2022-08-19T02:52:27;21.00;99.90
21559;DHT22;10940;48.890;8.240;2022-08-19T02:54:53;20.90;99.90
21559;DHT22;10940;48.890;8.240;2022-08-19T02:57:21;20.90;99.90
21559;DHT22;10940;48.890;8.240;2022-08-19T02:59:48;20.90;99.90
21559;DHT22;10940;48.890;8.240;2022-08-19T03:02:13;20.90;99.90
21559;DHT22;10940;48.890;8.240;2022-08-19T03:04:39;20.90;99.90
21559;DHT22;10940;48.890;8.240;2022-08-19T03:07:04;20.80;99.90
21559;DHT22;10940;48.890;8.240;2022-08-19T03:09:30;20.80;99.90
21559;DHT22;10940;48.890;8.240;2022-08-19T03:11:55;20.80;99.90
21559;DHT22;10940;48.890;8.240;2022-08-19T03:14:21;20.80;99.90
21559;DHT22;10940;48.890;8.240;2022-08-19T03:16:50;20.80;99.90
21559;DHT22;10940;48.890;8.240;2022-08-19T03:19:18;20.80;99.90
21559;DHT22;10940;48.890;8.240;2022-08-19T03:21:44;20.80;99.90
21559;DHT22;10940;48.890;8.240;2022-08-19T03:24:10;20.80;99.90
21559;DHT22;10940;48.890;8.240;2022-08-19T03:26:45;20.80;99.90
21559;DHT22;10940;48.890;8.240;2022-08-19T03:29:11;20.80;99.90
21559;DHT22;10940;48.890;8.240;2022-08-19T03:31:38;20.80;99.90
21559;DHT22;10940;48.890;8.240;2022-08-19T03:34:04;20.80;99.90
21559;DHT22;10940;48.890;8.240;2022-08-19T03:36:30;20.90;99.90
21559;DHT22;10940;48.890;8.240;2022-08-19T03:38:58;20.90;99.90
21559;DHT22;10940;48.890;8.240;2022-08-19T03:41:27;20.90;99.90
21559;DHT22;10940;48.890;8.240;2022-08-19T03:43:53;20.90;99.90
21559;DHT22;10940;48.890;8.240;2022-08-19T03:46:25;20.80;99.90
21559;DHT22;10940;48.890;8.240;2022-08-19T03:48:53;20.80;99.90
21559;DHT22;10940;48.890;8.240;2022-08-19T03:51:28;20.80;99.90
21559;DHT22;10940;48.890;8.240;2022-08-19T03:53:55;20.80;99.90
21559;DHT22;10940;48.890;8.240;2022-08-19T03:56:21;20.80;99.90
21559;DHT22;10940;48.890;8.240;2022-08-19T03:58:47;20.90;99.90
21559;DHT22;10940;48.890;8.240;2022-08-19T04:01:16;20.90;99.90
21559;DHT22;10940;48.890;8.240;2022-08-19T04:03:43;20.80;99.90
21559;DHT22;10940;48.890;8.240;2022-08-19T04:06:15;20.80;99.90
21559;DHT22;10940;48.890;8.240;2022-08-19T04:08:42;20.80;99.90
21559;DHT22;10940;48.890;8.240;2022-08-19T04:11:10;20.70;99.90
21559;DHT22;10940;48.890;8.240;2022-08-19T04:13:36;20.80;99.90
21559;DHT22;10940;48.890;8.240;2022-08-19T04:16:02;20.70;99.90
21559;DHT22;10940;48.890;8.240;2022-08-19T04:18:29;20.70;99.90
21559;DHT22;10940;48.890;8.240;2022-08-19T04:20:55;20.70;99.90
21559;DHT22;10940;48.890;8.240;2022-08-19T04:23:22;20.70;99.90
21559;DHT22;10940;48.890;8.240;2022-08-19T04:25:48;20.60;99.90
21559;DHT22;10940;48.890;8.240;2022-08-19T04:28:13;20.60;99.90
21559;DHT22;10940;48.890;8.240;2022-08-19T04:30:45;20.60;99.90
21559;DHT22;10940;48.890;8.240;2022-08-19T04:33:13;20.70;99.90
21559;DHT22;10940;48.890;8.240;2022-08-19T04:35:42;20.60;99.90
21559;DHT22;10940;48.890;8.240;2022-08-19T04:38:09;20.60;99.90
21559;DHT22;10940;48.890;8.240;2022-08-19T04:40:40;20.60;99.90
21559;DHT22;10940;48.890;8.240;2022-08-19T04:43:25;20.60;99.90
21559;DHT22;10940;48.890;8.240;2022-08-19T04:45:50;20.60;99.90
21559;DHT22;10940;48.890;8.240;2022-08-19T04:48:17;20.60;99.90
21559;DHT22;10940;48.890;8.240;2022-08-19T04:50:56;20.60;99.90
21559;DHT22;10940;48.890;8.240;2022-08-19T04:53:28;20.60;99.90
21559;DHT22;10940;48.890;8.240;2022-08-19T04:55:58;20.60;99.90
21559;DHT22;10940;48.890;8.240;2022-08-19T04:58:26;20.60;99.90
21559;DHT22;10940;48.890;8.240;2022-08-19T05:00:53;20.60;99.90
21559;DHT22;10940;48.890;8.240;2022-08-19T05:03:19;20.60;99.90
21559;DHT22;10940;48.890;8.240;2022-08-19T05:05:47;20.60;99.90
21559;DHT22;10940;48.890;8.240;2022-08-19T05:08:17;20.60;99.90
21559;DHT22;10940;48.890;8.240;2022-08-19T05:10:48;20.70;99.90
21559;DHT22;10940;48.890;8.240;2022-08-19T05:13:16;20.70;99.90
21559;DHT22;10940;48.890;8.240;2022-08-19T05:15:42;20.80;99.90
21559;DHT22;10940;48.890;8.240;2022-08-19T05:18:09;20.80;99.90
21559;DHT22;10940;48.890;8.240;2022-08-19T05:20:53;20.80;99.90
21559;DHT22;10940;48.890;8.240;2022-08-19T05:23:38;20.90;99.90
21559;DHT22;10940;48.890;8.240;2022-08-19T05:26:04;20.90;99.90
21559;DHT22;10940;48.890;8.240;2022-08-19T05:28:29;20.90;99.90
21559;DHT22;10940;48.890;8.240;2022-08-19T05:30:55;21.00;99.90
21559;DHT22;10940;48.890;8.240;2022-08-19T05:33:22;21.00;99.90
21559;DHT22;10940;48.890;8.240;2022-08-19T05:35:48;21.00;99.90
21559;DHT22;10940;48.890;8.240;2022-08-19T05:38:16;21.00;99.90
21559;DHT22;10940;48.890;8.240;2022-08-19T05:40:42;21.10;99.90
21559;DHT22;10940;48.890;8.240;2022-08-19T05:43:14;21.10;99.90
21559;DHT22;10940;48.890;8.240;2022-08-19T05:45:43;21.10;99.90
21559;DHT22;10940;48.890;8.240;2022-08-19T05:48:11;21.10;99.90
21559;DHT22;10940;48.890;8.240;2022-08-19T05:50:38;21.10;99.90
21559;DHT22;10940;48.890;8.240;2022-08-19T05:53:04;21.20;99.90
21559;DHT22;10940;48.890;8.240;2022-08-19T05:55:31;21.20;99.90
21559;DHT22;10940;48.890;8.240;2022-08-19T05:57:56;21.20;99.90
21559;DHT22;10940;48.890;8.240;2022-08-19T06:00:22;21.20;99.90
21559;DHT22;10940;48.890;8.240;2022-08-19T06:02:48;21.20;99.90
21559;DHT22;10940;48.890;8.240;2022-08-19T06:05:14;21.20;99.90
21559;DHT22;10940;48.890;8.240;2022-08-19T06:07:40;21.30;99.90
21559;DHT22;10940;48.890;8.240;2022-08-19T06:10:07;21.30;99.90
21559;DHT22;10940;48.890;8.240;2022-08-19T06:12:34;21.30;99.90
21559;DHT22;10940;48.890;8.240;2022-08-19T06:15:02;21.30;99.90
21559;DHT22;10940;48.890;8.240;2022-08-19T06:17:30;21.30;99.90
21559;DHT22;10940;48.890;8.240;2022-08-19T06:19:56;21.30;99.90
21559;DHT22;10940;48.890;8.240;2022-08-19T06:22:22;21.30;99.90
21559;DHT22;10940;48.890;8.240;2022-08-19T06:24:48;21.30;99.90
21559;DHT22;10940;48.890;8.240;2022-08-19T06:27:18;21.30;99.90
21559;DHT22;10940;48.890;8.240;2022-08-19T06:29:43;21.30;99.90
21559;DHT22;10940;48.890;8.240;2022-08-19T06:32:10;21.30;99.90
21559;DHT22;10940;48.890;8.240;2022-08-19T06:34:36;21.30;99.90
21559;DHT22;10940;48.890;8.240;2022-08-19T06:37:02;21.30;99.90
21559;DHT22;10940;48.890;8.240;2022-08-19T06:39:31;21.30;99.90
21559;DHT22;10940;48.890;8.240;2022-08-19T06:42:00;21.40;99.90
21559;DHT22;10940;48.890;8.240;2022-08-19T06:44:28;21.40;99.90
21559;DHT22;10940;48.890;8.240;2022-08-19T06:46:55;21.40;99.90
21559;DHT22;10940;48.890;8.240;2022-08-19T06:49:22;21.40;99.90
21559;DHT22;10940;48.890;8.240;2022-08-19T06:51:49;21.40;99.90
21559;DHT22;10940;48.890;8.240;2022-08-19T06:54:16;21.50;99.90
21559;DHT22;10940;48.890;8.240;2022-08-19T06:56:43;21.50;99.90
21559;DHT22;10940;48.890;8.240;2022-08-19T06:59:18;21.60;99.90
21559;DHT22;10940;48.890;8.240;2022-08-19T07:01:47;21.60;99.90
21559;DHT22;10940;48.890;8.240;2022-08-19T07:04:15;21.60;99.90
21559;DHT22;10940;48.890;8.240;2022-08-19T07:06:42;21.70;99.90
21559;DHT22;10940;48.890;8.240;2022-08-19T07:09:09;21.70;99.90
21559;DHT22;10940;48.890;8.240;2022-08-19T07:11:35;21.70;99.90
21559;DHT22;10940;48.890;8.240;2022-08-19T07:14:02;21.80;99.90
21559;DHT22;10940;48.890;8.240;2022-08-19T07:16:28;21.90;99.90
21559;DHT22;10940;48.890;8.240;2022-08-19T07:18:55;22.00;99.90
21559;DHT22;10940;48.890;8.240;2022-08-19T07:21:25;22.10;99.90
21559;DHT22;10940;48.890;8.240;2022-08-19T07:23:53;22.20;99.90
21559;DHT22;10940;48.890;8.240;2022-08-19T07:26:25;22.20;99.90
21559;DHT22;10940;48.890;8.240;2022-08-19T07:28:51;22.30;99.90
21559;DHT22;10940;48.890;8.240;2022-08-19T07:31:20;22.40;99.90
21559;DHT22;10940;48.890;8.240;2022-08-19T07:33:47;22.50;99.90
21559;DHT22;10940;48.890;8.240;2022-08-19T07:36:14;22.50;99.90
21559;DHT22;10940;48.890;8.240;2022-08-19T07:38:42;22.60;99.90
21559;DHT22;10940;48.890;8.240;2022-08-19T07:41:12;22.60;99.90
21559;DHT22;10940;48.890;8.240;2022-08-19T07:43:39;22.70;99.90
21559;DHT22;10940;48.890;8.240;2022-08-19T07:46:04;22.60;99.90
21559;DHT22;10940;48.890;8.240;2022-08-19T07:48:30;22.70;99.90
21559;DHT22;10940;48.890;8.240;2022-08-19T07:50:59;22.80;99.90
21559;DHT22;10940;48.890;8.240;2022-08-19T07:53:28;22.80;99.90
21559;DHT22;10940;48.890;8.240;2022-08-19T07:55:55;22.80;99.90
21559;DHT22;10940;48.890;8.240;2022-08-19T07:58:24;22.90;99.90
21559;DHT22;10940;48.890;8.240;2022-08-19T08:00:51;22.80;99.90
21559;DHT22;10940;48.890;8.240;2022-08-19T08:03:19;22.90;99.90
21559;DHT22;10940;48.890;8.240;2022-08-19T08:05:45;23.00;99.90
21559;DHT22;10940;48.890;8.240;2022-08-19T08:08:30;23.10;99.90
21559;DHT22;10940;48.890;8.240;2022-08-19T08:11:03;23.10;99.90
21559;DHT22;10940;48.890;8.240;2022-08-19T08:13:28;23.10;99.90
21559;DHT22;10940;48.890;8.240;2022-08-19T08:15:54;23.10;99.90
21559;DHT22;10940;48.890;8.240;2022-08-19T08:18:20;23.10;99.90
21559;DHT22;10940;48.890;8.240;2022-08-19T08:20:46;23.10;99.90
21559;DHT22;10940;48.890;8.240;2022-08-19T08:23:11;23.00;99.90
21559;DHT22;10940;48.890;8.240;2022-08-19T08:25:54;23.10;99.90
21559;DHT22;10940;48.890;8.240;2022-08-19T08:28:20;23.20;99.90
21559;DHT22;10940;48.890;8.240;2022-08-19T08:30:47;23.20;99.90
21559;DHT22;10940;48.890;8.240;2022-08-19T08:33:18;23.30;99.90
21559;DHT22;10940;48.890;8.240;2022-08-19T08:35:44;23.50;99.90
21559;DHT22;10940;48.890;8.240;2022-08-19T08:38:11;23.70;99.90
21559;DHT22;10940;48.890;8.240;2022-08-19T08:40:57;23.80;99.90
21559;DHT22;10940;48.890;8.240;2022-08-19T08:43:33;23.90;99.90
21559;DHT22;10940;48.890;8.240;2022-08-19T08:46:05;24.10;99.90
21559;DHT22;10940;48.890;8.240;2022-08-19T08:48:54;24.20;99.90
21559;DHT22;10940;48.890;8.240;2022-08-19T08:51:29;24.30;99.90
21559;DHT22;10940;48.890;8.240;2022-08-19T08:53:59;24.40;99.90
21559;DHT22;10940;48.890;8.240;2022-08-19T08:56:26;24.50;99.90
21559;DHT22;10940;48.890;8.240;2022-08-19T08:59:06;24.60;99.90
21559;DHT22;10940;48.890;8.240;2022-08-19T09:01:34;24.70;99.90
21559;DHT22;10940;48.890;8.240;2022-08-19T09:03:59;24.70;99.90
21559;DHT22;10940;48.890;8.240;2022-08-19T09:06:44;24.70;99.90
21559;DHT22;10940;48.890;8.240;2022-08-19T09:09:17;24.80;99.90
21559;DHT22;10940;48.890;8.240;2022-08-19T09:12:07;24.80;99.90
21559;DHT22;10940;48.890;8.240;2022-08-19T09:17:21;24.80;99.90
21559;DHT22;10940;48.890;8.240;2022-08-19T09:20:02;24.80;99.90
21559;DHT22;10940;48.890;8.240;2022-08-19T09:22:29;24.90;99.90
21559;DHT22;10940;48.890;8.240;2022-08-19T09:24:55;25.00;99.90
21559;DHT22;10940;48.890;8.240;2022-08-19T09:27:21;25.10;99.90
21559;DHT22;10940;48.890;8.240;2022-08-19T09:29:49;25.30;99.90
21559;DHT22;10940;48.890;8.240;2022-08-19T09:32:15;25.40;99.90
21559;DHT22;10940;48.890;8.240;2022-08-19T09:34:42;25.50;99.90
21559;DHT22;10940;48.890;8.240;2022-08-19T09:37:08;25.70;99.90
21559;DHT22;10940;48.890;8.240;2022-08-19T09:39:34;25.80;99.90
21559;DHT22;10940;48.890;8.240;2022-08-19T09:42:00;25.80;99.90
21559;DHT22;10940;48.890;8.240;2022-08-19T09:44:25;25.90;99.90
21559;DHT22;10940;48.890;8.240;2022-08-19T09:46:51;25.90;99.90
21559;DHT22;10940;48.890;8.240;2022-08-19T09:49:18;26.00;99.90
21559;DHT22;10940;48.890;8.240;2022-08-19T09:51:45;26.00;99.90
21559;DHT22;10940;48.890;8.240;2022-08-19T09:54:11;26.00;99.90
21559;DHT22;10940;48.890;8.240;2022-08-19T09:56:36;26.10;99.90
21559;DHT22;10940;48.890;8.240;2022-08-19T09:59:02;26.10;99.90
21559;DHT22;10940;48.890;8.240;2022-08-19T10:01:31;26.20;99.90
21559;DHT22;10940;48.890;8.240;2022-08-19T10:03:58;26.30;99.90
21559;DHT22;10940;48.890;8.240;2022-08-19T10:06:27;26.40;99.90
21559;DHT22;10940;48.890;8.240;2022-08-19T10:08:55;26.60;99.90
21559;DHT22;10940;48.890;8.240;2022-08-19T10:11:22;26.70;99.90
21559;DHT22;10940;48.890;8.240;2022-08-19T10:13:48;26.80;99.90
21559;DHT22;10940;48.890;8.240;2022-08-19T10:16:17;26.90;99.90
21559;DHT22;10940;48.890;8.240;2022-08-19T10:18:45;27.00;99.90
21559;DHT22;10940;48.890;8.240;2022-08-19T10:21:13;27.10;99.90
21559;DHT22;10940;48.890;8.240;2022-08-19T10:23:42;27.10;99.90
21559;DHT22;10940;48.890;8.240;2022-08-19T10:26:15;27.20;99.90
21559;DHT22;10940;48.890;8.240;2022-08-19T10:28:41;27.10;99.90
21559;DHT22;10940;48.890;8.240;2022-08-19T10:31:14;27.10;99.90
21559;DHT22;10940;48.890;8.240;2022-08-19T10:33:42;27.00;99.90
21559;DHT22;10940;48.890;8.240;2022-08-19T10:36:11;27.10;99.90
21559;DHT22;10940;48.890;8.240;2022-08-19T10:38:37;27.30;99.90
21559;DHT22;10940;48.890;8.240;2022-08-19T10:41:07;27.50;99.90
21559;DHT22;10940;48.890;8.240;2022-08-19T10:43:33;27.70;99.90
21559;DHT22;10940;48.890;8.240;2022-08-19T10:46:02;27.90;99.90
21559;DHT22;10940;48.890;8.240;2022-08-19T10:48:29;28.00;99.90
21559;DHT22;10940;48.890;8.240;2022-08-19T10:50:57;28.10;99.90
21559;DHT22;10940;48.890;8.240;2022-08-19T10:53:41;28.10;99.90
21559;DHT22;10940;48.890;8.240;2022-08-19T10:56:07;28.30;99.90
21559;DHT22;10940;48.890;8.240;2022-08-19T10:58:51;28.20;99.90
21559;DHT22;10940;48.890;8.240;2022-08-19T11:01:18;28.20;99.90
21559;DHT22;10940;48.890;8.240;2022-08-19T11:03:44;28.20;99.60
21559;DHT22;10940;48.890;8.240;2022-08-19T11:06:10;28.20;99.40
21559;DHT22;10940;48.890;8.240;2022-08-19T11:08:37;28.20;99.90
21559;DHT22;10940;48.890;8.240;2022-08-19T11:11:03;28.40;99.20
21559;DHT22;10940;48.890;8.240;2022-08-19T11:13:30;28.30;99.20
21559;DHT22;10940;48.890;8.240;2022-08-19T11:16:06;28.20;99.10
21559;DHT22;10940;48.890;8.240;2022-08-19T11:18:35;27.90;99.90
21559;DHT22;10940;48.890;8.240;2022-08-19T11:23:43;27.80;99.90
21559;DHT22;10940;48.890;8.240;2022-08-19T11:26:10;27.90;99.90
21559;DHT22;10940;48.890;8.240;2022-08-19T11:28:36;28.10;99.90
21559;DHT22;10940;48.890;8.240;2022-08-19T11:31:02;28.30;99.90
21559;DHT22;10940;48.890;8.240;2022-08-19T11:33:31;28.60;99.10
21559;DHT22;10940;48.890;8.240;2022-08-19T11:35:58;28.70;98.80
21559;DHT22;10940;48.890;8.240;2022-08-19T11:38:25;28.70;99.00
21559;DHT22;10940;48.890;8.240;2022-08-19T11:40:58;28.60;98.70
21559;DHT22;10940;48.890;8.240;2022-08-19T11:43:24;28.50;98.80
21559;DHT22;10940;48.890;8.240;2022-08-19T11:45:52;28.50;98.60
21559;DHT22;10940;48.890;8.240;2022-08-19T11:48:18;28.50;98.60
21559;DHT22;10940;48.890;8.240;2022-08-19T11:50:48;28.50;98.90
21559;DHT22;10940;48.890;8.240;2022-08-19T11:53:14;28.70;98.70
21559;DHT22;10940;48.890;8.240;2022-08-19T11:55:40;29.20;98.40
21559;DHT22;10940;48.890;8.240;2022-08-19T11:58:07;29.70;97.70
21559;DHT22;10940;48.890;8.240;2022-08-19T12:00:34;30.00;96.90
21559;DHT22;10940;48.890;8.240;2022-08-19T12:03:02;30.10;96.90
21559;DHT22;10940;48.890;8.240;2022-08-19T12:05:27;30.30;97.00
21559;DHT22;10940;48.890;8.240;2022-08-19T12:07:53;30.70;95.90
21559;DHT22;10940;48.890;8.240;2022-08-19T12:10:20;30.80;94.60
21559;DHT22;10940;48.890;8.240;2022-08-19T12:12:46;30.80;95.50
21559;DHT22;10940;48.890;8.240;2022-08-19T12:15:12;30.40;96.00
21559;DHT22;10940;48.890;8.240;2022-08-19T12:17:40;29.80;96.20
21559;DHT22;10940;48.890;8.240;2022-08-19T12:20:08;29.20;96.80
21559;DHT22;10940;48.890;8.240;2022-08-19T12:22:35;28.80;97.50
21559;DHT22;10940;48.890;8.240;2022-08-19T12:25:00;28.50;97.90
21559;DHT22;10940;48.890;8.240;2022-08-19T12:27:26;28.30;97.60
21559;DHT22;10940;48.890;8.240;2022-08-19T12:29:52;28.20;97.90
21559;DHT22;10940;48.890;8.240;2022-08-19T12:32:17;28.10;98.30
21559;DHT22;10940;48.890;8.240;2022-08-19T12:34:43;28.00;98.70
21559;DHT22;10940;48.890;8.240;2022-08-19T12:37:09;28.00;98.10
21559;DHT22;10940;48.890;8.240;2022-08-19T12:39:41;27.80;97.80
21559;DHT22;10940;48.890;8.240;2022-08-19T12:42:08;27.80;97.80
21559;DHT22;10940;48.890;8.240;2022-08-19T12:44:36;27.80;98.60
21559;DHT22;10940;48.890;8.240;2022-08-19T12:47:01;27.70;98.30
21559;DHT22;10940;48.890;8.240;2022-08-19T12:49:29;27.70;98.50
21559;DHT22;10940;48.890;8.240;2022-08-19T12:51:55;27.70;98.50
21559;DHT22;10940;48.890;8.240;2022-08-19T12:54:20;27.80;98.20
21559;DHT22;10940;48.890;8.240;2022-08-19T12:56:46;27.80;97.00
21559;DHT22;10940;48.890;8.240;2022-08-19T12:59:12;27.80;96.70
21559;DHT22;10940;48.890;8.240;2022-08-19T13:01:37;27.80;96.90
21559;DHT22;10940;48.890;8.240;2022-08-19T13:04:03;27.80;96.50
21559;DHT22;10940;48.890;8.240;2022-08-19T13:06:29;27.90;95.60
21559;DHT22;10940;48.890;8.240;2022-08-19T13:08:55;27.90;95.60
21559;DHT22;10940;48.890;8.240;2022-08-19T13:11:22;28.10;95.00
21559;DHT22;10940;48.890;8.240;2022-08-19T13:13:50;28.40;94.00
21559;DHT22;10940;48.890;8.240;2022-08-19T13:16:17;28.70;93.60
21559;DHT22;10940;48.890;8.240;2022-08-19T13:18:45;28.80;92.60
21559;DHT22;10940;48.890;8.240;2022-08-19T13:21:12;28.70;92.80
21559;DHT22;10940;48.890;8.240;2022-08-19T13:23:39;28.70;92.10
21559;DHT22;10940;48.890;8.240;2022-08-19T13:26:07;28.50;92.10
21559;DHT22;10940;48.890;8.240;2022-08-19T13:28:34;28.40;92.10
21559;DHT22;10940;48.890;8.240;2022-08-19T13:31:21;28.40;92.10
21559;DHT22;10940;48.890;8.240;2022-08-19T13:34:06;28.30;92.00
21559;DHT22;10940;48.890;8.240;2022-08-19T13:36:33;28.30;92.20
21559;DHT22;10940;48.890;8.240;2022-08-19T13:38:59;28.40;92.60
21559;DHT22;10940;48.890;8.240;2022-08-19T13:41:25;28.40;92.70
21559;DHT22;10940;48.890;8.240;2022-08-19T13:43:50;28.40;92.80
21559;DHT22;10940;48.890;8.240;2022-08-19T13:46:16;28.40;93.60
21559;DHT22;10940;48.890;8.240;2022-08-19T13:48:42;28.40;93.30
21559;DHT22;10940;48.890;8.240;2022-08-19T13:51:08;28.40;93.70
21559;DHT22;10940;48.890;8.240;2022-08-19T13:53:38;28.50;93.50
21559;DHT22;10940;48.890;8.240;2022-08-19T13:56:11;28.60;93.80
21559;DHT22;10940;48.890;8.240;2022-08-19T13:58:37;28.80;93.00
21559;DHT22;10940;48.890;8.240;2022-08-19T14:01:04;29.20;93.70
21559;DHT22;10940;48.890;8.240;2022-08-19T14:03:31;29.50;93.30
21559;DHT22;10940;48.890;8.240;2022-08-19T14:05:57;29.80;92.60
21559;DHT22;10940;48.890;8.240;2022-08-19T14:08:22;29.90;91.70
21559;DHT22;10940;48.890;8.240;2022-08-19T14:10:49;29.90;91.40
21559;DHT22;10940;48.890;8.240;2022-08-19T14:13:19;29.80;91.50
21559;DHT22;10940;48.890;8.240;2022-08-19T14:15:45;29.60;91.70
21559;DHT22;10940;48.890;8.240;2022-08-19T14:18:12;29.50;91.90
21559;DHT22;10940;48.890;8.240;2022-08-19T14:20:37;29.30;91.30
21559;DHT22;10940;48.890;8.240;2022-08-19T14:23:03;29.30;92.10
21559;DHT22;10940;48.890;8.240;2022-08-19T14:25:32;29.10;92.30
21559;DHT22;10940;48.890;8.240;2022-08-19T14:27:58;29.00;92.30
21559;DHT22;10940;48.890;8.240;2022-08-19T14:30:26;29.00;92.40
21559;DHT22;10940;48.890;8.240;2022-08-19T14:32:54;29.10;92.40
21559;DHT22;10940;48.890;8.240;2022-08-19T14:35:20;29.30;92.70
21559;DHT22;10940;48.890;8.240;2022-08-19T14:37:48;29.50;92.60
21559;DHT22;10940;48.890;8.240;2022-08-19T14:40:18;29.70;91.60
21559;DHT22;10940;48.890;8.240;2022-08-19T14:42:51;30.00;91.30
21559;DHT22;10940;48.890;8.240;2022-08-19T14:45:17;29.90;91.50
21559;DHT22;10940;48.890;8.240;2022-08-19T14:47:42;30.00;91.80
21559;DHT22;10940;48.890;8.240;2022-08-19T14:50:10;30.10;90.70
21559;DHT22;10940;48.890;8.240;2022-08-19T14:52:36;30.00;90.90
21559;DHT22;10940;48.890;8.240;2022-08-19T14:55:03;29.90;90.20
21559;DHT22;10940;48.890;8.240;2022-08-19T14:57:29;29.90;90.50
21559;DHT22;10940;48.890;8.240;2022-08-19T14:59:55;30.00;90.10
21559;DHT22;10940;48.890;8.240;2022-08-19T15:02:22;30.10;88.90
21559;DHT22;10940;48.890;8.240;2022-08-19T15:04:48;29.90;88.50
21559;DHT22;10940;48.890;8.240;2022-08-19T15:07:14;29.80;88.10
21559;DHT22;10940;48.890;8.240;2022-08-19T15:09:39;29.60;88.80
21559;DHT22;10940;48.890;8.240;2022-08-19T15:12:05;29.40;88.00
21559;DHT22;10940;48.890;8.240;2022-08-19T15:14:31;29.30;88.60
21559;DHT22;10940;48.890;8.240;2022-08-19T15:17:01;29.10;89.10
21559;DHT22;10940;48.890;8.240;2022-08-19T15:19:29;29.00;89.00
21559;DHT22;10940;48.890;8.240;2022-08-19T15:21:54;28.90;88.30
21559;DHT22;10940;48.890;8.240;2022-08-19T15:24:21;28.70;89.00
21559;DHT22;10940;48.890;8.240;2022-08-19T15:26:47;28.70;89.80
21559;DHT22;10940;48.890;8.240;2022-08-19T15:29:13;28.60;88.60
21559;DHT22;10940;48.890;8.240;2022-08-19T15:31:41;28.60;90.00
21559;DHT22;10940;48.890;8.240;2022-08-19T15:34:06;28.60;90.30
21559;DHT22;10940;48.890;8.240;2022-08-19T15:36:32;28.60;89.70
21559;DHT22;10940;48.890;8.240;2022-08-19T15:38:59;28.70;89.40
21559;DHT22;10940;48.890;8.240;2022-08-19T15:41:27;28.70;88.40